createdAt,value
2022-11-02T00:00:45.006Z,9.70
2022-11-02T00:07:27.327Z,9.30
2022-11-02T00:14:09.699Z,9.30
2022-11-02T00:20:52.055Z,9.20
2022-11-02T00:27:35.706Z,9.20
2022-11-02T00:34:18.115Z,9.30
2022-11-02T00:41:00.424Z,9.20
2022-11-02T00:47:46.929Z,9.10
2022-11-02T00:54:31.050Z,9.40
2022-11-02T01:15:15.515Z,9.40
2022-11-02T01:21:57.867Z,9.30
2022-11-02T01:28:40.701Z,9.60
2022-11-02T01:35:23.024Z,9.40
2022-11-02T01:42:18.288Z,9.40
2022-11-02T01:49:20.085Z,9.70
2022-11-02T01:56:03.254Z,9.60
2022-11-02T02:02:54.458Z,9.60
2022-11-02T02:09:37.482Z,9.60
2022-11-02T02:16:50.448Z,9.80
2022-11-02T02:24:02.892Z,9.70
2022-11-02T02:30:51.520Z,10.00
2022-11-02T02:37:42.919Z,9.90
2022-11-02T02:44:30.902Z,10.00
2022-11-02T02:51:27.834Z,10.00
2022-11-02T02:58:18.431Z,9.90
2022-11-02T03:05:01.033Z,10.00
2022-11-02T03:11:49.600Z,9.90
2022-11-02T03:18:53.102Z,9.90
2022-11-02T03:25:40.019Z,9.80
2022-11-02T03:32:27.873Z,9.80
2022-11-02T03:39:13.647Z,10.20
2022-11-02T03:46:00.892Z,10.00
2022-11-02T03:52:47.854Z,10.20
2022-11-02T03:59:32.163Z,10.20
2022-11-02T04:06:15.794Z,10.00
2022-11-02T04:13:16.657Z,10.20
2022-11-02T04:19:59.072Z,10.10
2022-11-02T04:26:42.505Z,10.00
2022-11-02T04:33:34.433Z,10.00
2022-11-02T04:40:29.047Z,10.00
2022-11-02T04:47:11.900Z,10.00
2022-11-02T04:53:57.621Z,9.80
2022-11-02T05:00:40.254Z,9.70
2022-11-02T05:07:24.706Z,9.80
2022-11-02T05:14:08.046Z,9.80
2022-11-02T05:20:56.394Z,9.70
2022-11-02T05:27:40.980Z,9.60
2022-11-02T05:34:24.137Z,9.60
2022-11-02T05:41:06.562Z,9.80
2022-11-02T05:47:53.234Z,9.70
2022-11-02T05:54:35.567Z,9.80
2022-11-02T06:01:18.003Z,9.60
2022-11-02T06:08:01.759Z,9.80
2022-11-02T06:14:44.253Z,9.70
2022-11-02T06:21:26.713Z,9.90
2022-11-02T06:28:09.042Z,9.80
2022-11-02T06:34:51.599Z,10.00
2022-11-02T06:41:34.114Z,10.20
2022-11-02T06:48:16.645Z,10.10
2022-11-02T06:54:58.979Z,10.90
2022-11-02T07:01:41.510Z,11.60
2022-11-02T07:08:24.128Z,11.70
2022-11-02T07:15:42.230Z,11.60
2022-11-02T07:22:24.768Z,11.80
2022-11-02T07:29:07.199Z,11.90
2022-11-02T07:35:49.619Z,12.20
2022-11-02T07:42:31.997Z,12.40
2022-11-02T07:49:20.230Z,13.10
2022-11-02T07:56:04.363Z,13.50
2022-11-02T08:02:47.060Z,13.50
2022-11-02T08:09:29.442Z,13.70
2022-11-02T08:16:11.861Z,14.60
2022-11-02T08:22:54.339Z,15.50
2022-11-02T08:29:36.935Z,15.90
2022-11-02T08:36:19.270Z,16.00
2022-11-02T08:43:13.181Z,16.30
2022-11-02T08:49:55.495Z,17.00
2022-11-02T08:56:37.845Z,16.80
2022-11-02T09:03:26.153Z,16.60
2022-11-02T09:10:09.697Z,16.60
2022-11-02T09:16:52.013Z,17.00
2022-11-02T09:23:35.430Z,16.90
2022-11-02T09:30:18.409Z,17.00
2022-11-02T09:37:00.759Z,17.00
2022-11-02T09:44:01.878Z,17.20
2022-11-02T09:51:11.507Z,17.40
2022-11-02T09:58:13.761Z,17.50
2022-11-02T10:05:14.526Z,17.70
2022-11-02T10:12:15.539Z,17.70
2022-11-02T10:18:57.851Z,17.50
2022-11-02T10:25:41.287Z,17.40
2022-11-02T10:32:23.778Z,17.30
2022-11-02T10:39:14.982Z,17.30
2022-11-02T10:46:03.179Z,17.30
2022-11-02T10:52:46.850Z,17.40
2022-11-02T10:59:29.672Z,17.40
2022-11-02T11:06:12.930Z,17.20
2022-11-02T11:12:56.401Z,17.20
2022-11-02T11:19:41.617Z,17.30
2022-11-02T11:26:30.896Z,17.20
2022-11-02T11:33:19.215Z,16.80
2022-11-02T11:40:06.297Z,16.80
2022-11-02T11:46:52.304Z,16.70
2022-11-02T11:53:35.556Z,16.80
2022-11-02T12:00:29.031Z,16.90
2022-11-02T12:07:36.272Z,17.00
2022-11-02T12:14:56.324Z,16.80
2022-11-02T12:21:50.490Z,16.80
2022-11-02T12:28:44.888Z,17.20
2022-11-02T12:35:50.959Z,17.30
2022-11-02T12:42:57.878Z,17.00
2022-11-02T12:50:08.699Z,16.80
2022-11-02T12:56:53.366Z,16.90
2022-11-02T13:03:53.126Z,17.00
2022-11-02T13:10:54.585Z,17.00
2022-11-02T13:17:42.925Z,16.80
2022-11-02T13:24:34.326Z,16.90
2022-11-02T13:31:44.966Z,16.90
2022-11-02T13:38:55.844Z,16.90
2022-11-02T13:45:52.510Z,16.80
2022-11-02T13:52:41.810Z,16.70
2022-11-02T13:59:35.872Z,16.60
2022-11-02T14:06:21.383Z,16.40
2022-11-02T14:13:04.450Z,16.40
2022-11-02T14:19:46.822Z,16.20
2022-11-02T14:26:39.802Z,16.20
2022-11-02T14:33:31.355Z,16.00
2022-11-02T14:40:52.049Z,16.00
2022-11-02T14:47:37.817Z,15.90
2022-11-02T14:54:20.958Z,15.60
2022-11-02T15:01:04.518Z,15.60
2022-11-02T15:07:54.615Z,15.40
2022-11-02T15:14:40.033Z,15.30
2022-11-02T15:21:23.097Z,15.20
2022-11-02T15:28:16.546Z,15.10
2022-11-02T15:35:00.943Z,15.00
2022-11-02T15:41:58.425Z,14.80
2022-11-02T15:49:07.028Z,14.60
2022-11-02T15:56:04.506Z,14.30
2022-11-02T16:02:50.123Z,13.90
2022-11-02T16:09:39.323Z,13.50
2022-11-02T16:16:22.008Z,13.20
2022-11-02T16:23:06.460Z,12.90
2022-11-02T16:29:50.643Z,12.60
2022-11-02T16:36:36.531Z,12.30
2022-11-02T16:43:19.748Z,12.20
2022-11-02T16:50:02.512Z,12.00
2022-11-02T16:56:49.825Z,11.80
2022-11-02T17:03:34.506Z,11.70
2022-11-02T17:10:27.171Z,11.60
2022-11-02T17:17:24.770Z,11.30
2022-11-02T17:24:30.953Z,11.20
2022-11-02T17:31:33.790Z,11.00
2022-11-02T17:38:16.656Z,10.90
2022-11-02T17:44:59.103Z,10.90
2022-11-02T17:51:41.971Z,10.70
2022-11-02T17:58:24.329Z,10.60
2022-11-02T18:05:31.304Z,10.60
2022-11-02T18:12:14.636Z,10.40
2022-11-02T18:18:56.955Z,10.30
2022-11-02T18:25:39.391Z,10.10
2022-11-02T18:32:21.695Z,10.00
2022-11-02T18:39:04.278Z,9.80
2022-11-02T18:45:46.712Z,9.70
2022-11-02T18:52:32.121Z,9.60
2022-11-02T18:59:14.822Z,9.60
2022-11-02T19:06:15.968Z,9.60
2022-11-02T19:13:24.577Z,9.50
2022-11-02T19:20:07.470Z,9.50
2022-11-02T19:26:50.294Z,9.50
2022-11-02T19:33:32.635Z,9.40
2022-11-02T19:40:15.025Z,9.40
2022-11-02T19:46:57.461Z,9.30
2022-11-02T19:53:45.971Z,9.20
2022-11-02T20:00:28.366Z,9.20
2022-11-02T20:07:10.696Z,9.10
2022-11-02T20:13:53.754Z,8.90
2022-11-02T20:20:36.113Z,8.70
2022-11-02T20:27:37.217Z,8.70
2022-11-02T20:34:19.611Z,8.60
2022-11-02T20:41:10.437Z,8.60
2022-11-02T20:48:01.462Z,8.70
2022-11-02T20:54:43.787Z,8.70
2022-11-02T21:01:26.274Z,8.70
2022-11-02T21:08:09.093Z,8.50
2022-11-02T21:14:51.471Z,8.60
2022-11-02T21:21:33.887Z,8.50
2022-11-02T21:28:16.209Z,8.50
2022-11-02T21:34:58.503Z,8.60
2022-11-02T21:41:40.831Z,8.60
2022-11-02T21:48:24.762Z,8.60
2022-11-02T21:55:07.728Z,8.60
2022-11-02T22:01:51.453Z,8.70
2022-11-02T22:08:39.877Z,8.40
2022-11-02T22:15:22.202Z,8.30
2022-11-02T22:22:04.818Z,8.40
2022-11-02T22:28:47.973Z,8.40
2022-11-02T22:35:30.316Z,8.50
2022-11-02T22:42:12.677Z,8.60
2022-11-02T22:48:57.137Z,8.60
2022-11-02T22:55:39.456Z,8.60
2022-11-02T23:02:21.799Z,8.70
2022-11-02T23:09:05.286Z,8.70
2022-11-02T23:15:47.852Z,8.70
2022-11-02T23:22:32.848Z,8.70
2022-11-02T23:29:34.250Z,8.70
2022-11-02T23:36:16.828Z,8.60
2022-11-02T23:42:59.509Z,8.70
2022-11-02T23:49:41.938Z,8.60
2022-11-02T23:56:42.667Z,8.60
